• Join FlightAware (Why Join?)
  • Login
  • US Flag GB Flag 
06:14 EDT


 

Airport Tracker/Info


-or-


 

Live Flight TrackerFlight Track Log ✈ MRA689 ✈ 31-Mar-2012 ✈ KOAK - KMRY

Flight Track Log - Related Links

Times and Time Zones

All times are in EDT time to prevent confusion due to time zone crossing. See the MRA689 flight status page for this flight to view local times or setup timezone preferences in your user account.

Time Position Orientation Groundspeed Altitude Reporting Facility
EDT Latitude Longitude Course Direction KTS MPH feet Rate Location/Type
11:20 37.7167 -122.2000 90° East 82 94 600  Level Northern Cal TRACON
11:21 37.7167 -122.1667 90° East 102 117 1,300 600 Climbing Northern Cal TRACON
11:21 37.7167 -122.1333 90° East 115 132 1,800 780 Climbing Northern Cal TRACON
11:22 37.7167 -122.1000 90° East 118 136 2,800 960 Climbing Northern Cal TRACON
11:23 37.7167 -122.0500 122° Southeast 120 138 3,700 780 Climbing Northern Cal TRACON
11:24 37.7000 -122.0167 122° Southeast 122 140 4,400 780 Climbing Northern Cal TRACON
11:25 37.6833 -121.9833 90° East 123 142 5,300 720 Climbing Northern Cal TRACON
11:26 37.6833 -121.9333 122° Southeast 131 151 5,800 480 Climbing Northern Cal TRACON
11:27 37.6667 -121.9000 180° South 110 127 6,300 540 Climbing Northern Cal TRACON
11:28 37.6333 -121.9000 142° Southeast 91 105 6,900 300 Climbing Northern Cal TRACON
11:29 37.6167 -121.8833 158° South 117 135 6,900  Level Northern Cal TRACON
11:30 37.5833 -121.8667 165° South 134 154 6,900  Level Northern Cal TRACON
11:31 37.5333 -121.8500 180° South 140 161 7,000  Climbing Northern Cal TRACON
11:32 37.5000 -121.8500 180° South 121 139 7,000  Level Northern Cal TRACON
11:33 37.4667 -121.8500 202° Southwest 127 146 7,000  Level Northern Cal TRACON
11:34 37.4333 -121.8667 180° South 128 147 7,000  Level Northern Cal TRACON
11:35 37.4000 -121.8667 202° Southwest 117 135 7,000  Level Northern Cal TRACON
11:36 37.3667 -121.8833 218° Southwest 114 131 7,000  Level Northern Cal TRACON
11:37 37.3500 -121.9000 180° South 117 135 7,000  Level Northern Cal TRACON
11:38 37.3167 -121.9000 180° South 124 143 7,000  Level Northern Cal TRACON
11:39 37.2833 -121.9000 195° South 130 150 7,000  Level Northern Cal TRACON
11:40 37.2333 -121.9167 180° South 134 154 7,000  Level Northern Cal TRACON
11:41 37.2000 -121.9167 180° South 125 144 7,000  Level Northern Cal TRACON
11:42 37.1667 -121.9167 180° South 113 130 7,000  Level Northern Cal TRACON
11:43 37.1333 -121.9167 180° South 122 140 7,000  Level Northern Cal TRACON
11:44 37.1000 -121.9167 202° Southwest 121 139 7,000  Level Northern Cal TRACON
11:45 37.0667 -121.9333 180° South 122 140 7,000  Level Northern Cal TRACON
11:46 37.0333 -121.9333 180° South 118 136 7,000  Level Northern Cal TRACON
11:47 37.0000 -121.9333 180° South 120 138 7,000  Level Northern Cal TRACON
11:48 36.9667 -121.9333 202° Southwest 125 144 7,000  Level Northern Cal TRACON
11:49 36.9333 -121.9500 180° South 128 147 7,000 -180 Level Northern Cal TRACON
11:50 36.9000 -121.9500 219° Southwest 128 147 6,700 -540 Descending Northern Cal TRACON
11:51 36.8667 -121.9833 202° Southwest 136 157 6,000 -360 Descending Northern Cal TRACON
11:52 36.8333 -122.0000 219° Southwest 120 138 6,000  Level Northern Cal TRACON
11:53 36.8167 -122.0167 219° Southwest 115 132 6,000 -420 Level Northern Cal TRACON
11:54 36.7833 -122.0500 238° Southwest 128 147 5,200 -900 Descending Northern Cal TRACON
11:55 36.7667 -122.0833 180° South 126 145 4,300 -960 Descending Northern Cal TRACON
11:56 36.7333 -122.0833 202° Southwest 123 142 3,300 -900 Descending Northern Cal TRACON
11:57 36.7000 -122.1000 158° South 119 137 2,600 -420 Descending Northern Cal TRACON
11:58 36.6667 -122.0833 113° Southeast 133 153 2,500 -300 Descending Northern Cal TRACON
11:59 36.6500 -122.0333 90° East 142 163 2,000 -360 Descending Northern Cal TRACON
12:00 36.6500 -122.0000 122° Southeast 114 131 1,800 -180 Descending Northern Cal TRACON
12:01 36.6333 -121.9667 122° Southeast 118 136 1,700 -180 Descending Northern Cal TRACON
12:02 36.6167 -121.9333 113° Southeast 121 139 1,500 -540 Descending Northern Cal TRACON
12:03 36.6000 -121.8833 113° Southeast 136 157 700 -840 Descending Northern Cal TRACON